This is the latest recevied weather packets stored in our database for station/object KI5BDI. If no packets are shown the sender has not sent any weather packets the latest 10 day(s).
| Time | Temp. | Humidity | Pressure | Rain* | Wind** | Luminosity | Snow |
|---|---|---|---|---|---|---|---|
| 1777161319 | 28.33° C | 76% | 1005.2 hPa | 0 mm | - | 60 W/m² | - |
| 1777160119 | 28.89° C | 74% | 1004.9 hPa | 0 mm | - | 127 W/m² | - |
| 1777151121 | 29.44° C | 74% | 1005.7 hPa | 0 mm | - | 483 W/m² | - |
| 1777147519 | 28.33° C | 78% | 1006.5 hPa | 0 mm | - | 833 W/m² | - |
| 1777146921 | 27.78° C | 79% | 1006.6 hPa | 0 mm | - | 915 W/m² | - |
| 1777145720 | 26.67° C | 84% | 1007.1 hPa | 0 mm | - | 941 W/m² | - |
| 1777142722 | 26.67° C | 84% | 1007.3 hPa | 0 mm | - | 619 W/m² | - |
| 1777139719 | 27.22° C | 83% | 1007.8 hPa | 0 mm | - | 914 W/m² | - |
| 1777129521 | 23.33° C | 100% | 1008.1 hPa | 0 mm | - | 299 W/m² | - |
| 1777123519 | 20° C | 100% | 1008.1 hPa | 0 mm | - | 271 W/m² | - |
| 1777119329 | 17.22° C | 99% | 1007.9 hPa | 0 mm | - | 40 W/m² | - |
| 1777110932 | 16.67° C | 99% | 1007 hPa | 0 mm | - | 0 W/m² | - |
| 1777110323 | 16.67° C | 99% | 1007.2 hPa | 0 mm | - | 0 W/m² | - |
| 1777109117 | 16.67° C | 99% | 1006.9 hPa | 0 mm | - | 0 W/m² | - |
| 1777108517 | 16.67° C | 99% | 1006.9 hPa | 0 mm | - | 0 W/m² | - |
| 1777104918 | 17.22° C | 98% | 1006.9 hPa | 0 mm | - | 0 W/m² | - |
| 1777100718 | 17.22° C | 97% | 1006.7 hPa | 6.1 mm | - | 0 W/m² | - |
| 1777097119 | 18.33° C | 97% | 1007.5 hPa | 15.75 mm | - | 0 W/m² | - |
| 1777090521 | 22.78° C | 82% | 1006.7 hPa | 0 mm | - | 0 W/m² | - |
| 1777089318 | 24.44° C | 82% | 1006.6 hPa | 0 mm | - | 0 W/m² | - |
| 1777088122 | 25° C | 85% | 1006.4 hPa | 0 mm | - | 0 W/m² | - |
| 1777085123 | 24.44° C | 88% | 1003.6 hPa | 0 mm | - | 0 W/m² | - |
| 1777080938 | 25.56° C | 84% | 1004 hPa | 0 mm | - | 0 W/m² | - |
| 1777077919 | 27.22° C | 79% | 1003.9 hPa | 0 mm | - | 20 W/m² | - |
| 1777075520 | 28.89° C | 75% | 1003.8 hPa | 0 mm | - | 90 W/m² | - |
* Rain latest hour (hover to see other rain measurements)
** Current wind speed in m/s (hover to see current wind gust speed)